Time;durP1;ratioP1;P1;durP2;ratioP2;P2;SDS_P1;SDS_P2;PMS_P1;PMS_P2;Temp;Humidity;BMP_temperature;BMP_pressure;BME280_temperature;BME280_humidity;BME280_pressure;Samples;Min_cycle;Max_cycle;Signal;HPM_P1;HPM_P2
2024/01/02 00:00:02;;;;;;;14.57;10.67;;;1.70;99.90;;;;;;5051899;28;20195;-80
2024/01/02 00:02:28;;;;;;;14.00;10.87;;;1.80;99.90;;;;;;5052252;28;20179;-79
2024/01/02 00:04:54;;;;;;;14.70;10.43;;;1.80;99.90;;;;;;5051995;28;20533;-79
2024/01/02 00:07:19;;;;;;;11.40;9.50;;;1.70;99.90;;;;;;5051992;28;20584;-80
2024/01/02 00:09:45;;;;;;;12.23;10.07;;;1.80;99.90;;;;;;5052800;28;20222;-79
2024/01/02 00:12:11;;;;;;;11.23;9.30;;;1.70;99.90;;;;;;5055849;28;20263;-79
2024/01/02 00:14:36;;;;;;;11.53;9.50;;;1.60;99.90;;;;;;5055349;28;20181;-76
2024/01/02 00:17:02;;;;;;;13.67;10.10;;;1.70;99.90;;;;;;5056053;28;20179;-77
2024/01/02 00:19:28;;;;;;;13.43;9.77;;;1.60;99.90;;;;;;5067344;28;20177;-77
2024/01/02 00:21:54;;;;;;;13.63;10.50;;;1.70;99.90;;;;;;5056547;28;20272;-77
2024/01/02 00:24:19;;;;;;;13.00;10.50;;;1.80;99.90;;;;;;5055730;28;20687;-78
2024/01/02 00:26:45;;;;;;;15.60;10.83;;;1.80;99.90;;;;;;5054475;28;20542;-81
2024/01/02 00:29:11;;;;;;;13.67;10.70;;;1.80;99.90;;;;;;5055123;28;20205;-78
2024/01/02 00:31:37;;;;;;;13.73;10.23;;;1.80;99.90;;;;;;5054597;28;20268;-78
2024/01/02 00:34:02;;;;;;;11.27;9.90;;;1.80;99.90;;;;;;5053648;28;20180;-77
2024/01/02 00:36:28;;;;;;;11.67;9.33;;;1.70;99.90;;;;;;5056338;28;20177;-77
2024/01/02 00:38:56;;;;;;;12.20;9.77;;;1.70;99.90;;;;;;5055490;28;20660;-75
2024/01/02 00:41:23;;;;;;;11.23;9.33;;;1.60;99.90;;;;;;5054567;28;20205;-79
2024/01/02 00:43:49;;;;;;;12.77;9.80;;;1.40;99.90;;;;;;5058988;28;20204;-76
2024/01/02 00:46:15;;;;;;;13.60;9.77;;;1.40;99.90;;;;;;5058451;28;20184;-76
2024/01/02 00:48:41;;;;;;;11.93;9.40;;;1.40;99.90;;;;;;5067499;28;20186;-77
2024/01/02 00:51:06;;;;;;;14.73;10.70;;;1.30;99.90;;;;;;5067330;28;20181;-79
2024/01/02 00:53:33;;;;;;;13.87;9.83;;;1.30;99.90;;;;;;5055841;28;20194;-78
2024/01/02 00:56:00;;;;;;;11.57;9.63;;;1.20;99.90;;;;;;5055017;28;20530;-77
2024/01/02 00:58:26;;;;;;;12.33;9.93;;;1.30;99.90;;;;;;5054923;28;20209;-80
2024/01/02 01:00:52;;;;;;;12.53;10.03;;;1.30;99.90;;;;;;5054477;28;20191;-79
2024/01/02 01:03:18;;;;;;;11.17;8.63;;;1.20;99.90;;;;;;5055187;28;20317;-78
2024/01/02 01:05:44;;;;;;;12.47;9.33;;;1.40;99.90;;;;;;5053022;28;20333;-78
2024/01/02 01:08:09;;;;;;;11.30;8.80;;;1.20;99.90;;;;;;5056491;28;20539;-77
2024/01/02 01:10:35;;;;;;;16.57;10.33;;;1.20;99.90;;;;;;5056580;28;20532;-80
2024/01/02 01:13:01;;;;;;;11.67;9.17;;;1.20;99.90;;;;;;5056503;28;20247;-78
2024/01/02 01:15:27;;;;;;;12.77;9.37;;;1.20;99.90;;;;;;5055742;28;20263;-77
2024/01/02 01:17:53;;;;;;;12.13;9.90;;;1.20;99.90;;;;;;5054051;28;20724;-80
2024/01/02 01:20:20;;;;;;;17.50;10.00;;;1.20;99.90;;;;;;5054204;28;20240;-79
2024/01/02 01:22:46;;;;;;;24.20;10.07;;;1.20;99.90;;;;;;5053225;28;20184;-80
2024/01/02 01:25:12;;;;;;;13.47;8.60;;;1.10;99.90;;;;;;5054616;28;20185;-79
2024/01/02 01:27:37;;;;;;;12.30;8.87;;;1.10;99.90;;;;;;5057958;28;20182;-78
2024/01/02 01:30:03;;;;;;;12.00;8.67;;;1.00;99.90;;;;;;5071308;28;20176;-76
2024/01/02 01:32:29;;;;;;;9.40;8.03;;;1.10;99.90;;;;;;5054280;28;20207;-79
2024/01/02 01:34:55;;;;;;;9.70;8.60;;;1.00;99.90;;;;;;5054228;28;20187;-80
2024/01/02 01:37:21;;;;;;;12.47;8.20;;;1.00;99.90;;;;;;5053886;28;20579;-79
2024/01/02 01:39:46;;;;;;;8.07;7.27;;;1.00;99.90;;;;;;5053660;28;20180;-79
2024/01/02 01:42:12;;;;;;;11.27;7.80;;;0.90;99.90;;;;;;5053561;28;20175;-82
2024/01/02 01:44:38;;;;;;;14.63;7.70;;;0.90;99.90;;;;;;5053644;28;20178;-81
2024/01/02 01:47:04;;;;;;;14.70;7.40;;;0.90;99.90;;;;;;5053239;28;20587;-80
2024/01/02 01:49:31;;;;;;;9.63;7.27;;;0.90;99.90;;;;;;5053706;28;20187;-76
2024/01/02 01:51:58;;;;;;;8.73;7.80;;;0.90;99.90;;;;;;5054546;28;20570;-78
2024/01/02 01:54:25;;;;;;;7.70;6.90;;;0.80;99.90;;;;;;5067764;28;20817;-76
2024/01/02 01:56:52;;;;;;;11.03;7.53;;;0.70;99.90;;;;;;5060479;28;20183;-79
2024/01/02 01:59:18;;;;;;;8.27;7.40;;;0.70;99.90;;;;;;5053797;28;20164;-80
2024/01/02 02:01:46;;;;;;;8.80;7.17;;;0.70;99.90;;;;;;5054823;28;20193;-80
2024/01/02 02:04:13;;;;;;;8.83;7.33;;;0.70;99.90;;;;;;5054137;28;20534;-78
2024/01/02 02:06:39;;;;;;;8.97;7.20;;;0.70;99.90;;;;;;5065484;28;20179;-76
2024/01/02 02:09:04;;;;;;;9.27;7.60;;;0.70;99.90;;;;;;5053806;28;20744;-78
2024/01/02 02:11:31;;;;;;;10.30;7.57;;;0.80;99.90;;;;;;5051952;28;20209;-77
2024/01/02 02:13:57;;;;;;;7.77;6.97;;;0.80;99.90;;;;;;5054831;28;20258;-77
2024/01/02 02:16:23;;;;;;;8.03;6.80;;;0.80;99.90;;;;;;5053525;28;20176;-76
2024/01/02 02:18:49;;;;;;;7.77;6.97;;;0.80;99.90;;;;;;5053150;28;20615;-79
2024/01/02 02:21:14;;;;;;;6.47;5.77;;;0.70;99.90;;;;;;5056904;28;20164;-78
2024/01/02 02:23:40;;;;;;;6.93;6.20;;;-0.60;99.90;;;;;;5073890;28;20230;-81
2024/01/02 02:26:06;;;;;;;6.37;5.70;;;0.70;99.90;;;;;;5053572;28;20190;-80
2024/01/02 02:28:32;;;;;;;6.70;6.00;;;0.70;99.90;;;;;;5052774;28;20636;-79
2024/01/02 02:30:57;;;;;;;6.60;6.00;;;0.70;99.90;;;;;;5052868;28;20175;-79
2024/01/02 02:33:23;;;;;;;6.77;6.10;;;0.70;99.90;;;;;;5052956;28;20286;-80
2024/01/02 02:35:49;;;;;;;8.07;6.83;;;0.80;99.90;;;;;;5053354;28;20186;-76
2024/01/02 02:38:15;;;;;;;7.60;6.67;;;0.70;99.90;;;;;;5054562;28;20192;-77
2024/01/02 02:40:41;;;;;;;8.33;6.97;;;0.70;99.90;;;;;;5052517;28;20237;-80
2024/01/02 02:43:07;;;;;;;7.07;6.37;;;0.70;99.90;;;;;;5053783;28;20298;-77
2024/01/02 02:45:34;;;;;;;8.07;6.77;;;0.70;99.90;;;;;;5053136;28;20172;-79
2024/01/02 02:47:59;;;;;;;7.13;6.43;;;1.20;99.90;;;;;;5054815;28;20656;-78
2024/01/02 02:50:25;;;;;;;10.90;7.77;;;0.80;99.90;;;;;;5053179;28;20261;-78
2024/01/02 02:52:51;;;;;;;9.50;7.63;;;0.80;99.90;;;;;;5053007;28;20203;-77
2024/01/02 02:55:17;;;;;;;9.27;6.53;;;0.80;99.90;;;;;;5052771;28;20269;-78
2024/01/02 02:57:42;;;;;;;8.40;5.83;;;0.70;99.90;;;;;;5052540;28;20512;-80
2024/01/02 03:00:10;;;;;;;6.70;4.93;;;0.80;99.90;;;;;;5052644;28;20649;-80
2024/01/02 03:02:35;;;;;;;4.40;4.00;;;0.80;99.90;;;;;;5052391;28;20172;-80
2024/01/02 03:05:01;;;;;;;4.30;3.90;;;0.80;99.90;;;;;;5053345;28;20178;-81
2024/01/02 03:07:27;;;;;;;4.27;3.87;;;0.80;99.90;;;;;;5059167;28;20186;-81
2024/01/02 03:09:53;;;;;;;4.63;3.50;;;0.80;99.90;;;;;;5053458;28;20223;-78
2024/01/02 03:12:18;;;;;;;4.60;4.20;;;0.80;99.90;;;;;;5052382;28;20211;-78
2024/01/02 03:14:44;;;;;;;4.63;3.90;;;0.90;99.90;;;;;;5052600;28;20263;-78
2024/01/02 03:17:10;;;;;;;5.37;4.60;;;0.80;99.90;;;;;;5052480;28;20177;-77
2024/01/02 03:19:36;;;;;;;5.10;4.63;;;0.90;99.90;;;;;;5053662;28;20172;-78
2024/01/02 03:22:01;;;;;;;5.87;5.13;;;0.90;99.90;;;;;;5052281;28;20172;-77
2024/01/02 03:24:27;;;;;;;5.87;4.80;;;0.90;99.90;;;;;;5064385;28;20195;-77
2024/01/02 03:26:53;;;;;;;7.10;5.57;;;0.90;99.90;;;;;;5055943;28;20235;-77
2024/01/02 03:29:19;;;;;;;6.70;6.00;;;0.90;99.90;;;;;;5062145;28;20183;-79
2024/01/02 03:31:45;;;;;;;8.00;6.57;;;0.90;99.90;;;;;;5064489;28;20207;-77
2024/01/02 03:34:11;;;;;;;8.07;7.23;;;0.90;99.90;;;;;;5052987;28;20186;-75
2024/01/02 03:36:36;;;;;;;6.77;6.07;;;0.90;99.90;;;;;;5052944;28;20193;-77
2024/01/02 03:39:03;;;;;;;7.30;6.43;;;0.90;99.90;;;;;;5053367;28;20287;-77
2024/01/02 03:41:29;;;;;;;7.67;6.53;;;0.70;99.90;;;;;;5052432;28;20172;-76
2024/01/02 03:43:55;;;;;;;7.00;6.30;;;0.60;99.90;;;;;;5054070;28;20719;-79
2024/01/02 03:46:21;;;;;;;8.97;7.13;;;0.70;99.90;;;;;;5055318;28;20623;-79
2024/01/02 03:48:46;;;;;;;9.10;7.13;;;0.60;99.90;;;;;;5054838;28;20191;-80
2024/01/02 03:51:12;;;;;;;7.77;7.03;;;0.50;99.90;;;;;;5055962;28;20173;-77
2024/01/02 03:53:38;;;;;;;10.67;8.23;;;0.50;99.90;;;;;;5057197;28;20265;-80
2024/01/02 03:56:04;;;;;;;9.77;7.33;;;0.40;99.90;;;;;;5057130;28;20224;-79
2024/01/02 03:58:30;;;;;;;10.60;6.67;;;0.40;99.90;;;;;;5055963;28;20213;-79
2024/01/02 04:00:56;;;;;;;12.43;7.63;;;0.40;99.90;;;;;;5056703;28;20236;-78
2024/01/02 04:03:23;;;;;;;8.93;7.00;;;0.30;99.90;;;;;;5058484;28;20201;-80
2024/01/02 04:05:49;;;;;;;9.50;6.93;;;0.30;99.90;;;;;;5061328;28;20186;-78
2024/01/02 04:08:15;;;;;;;10.83;6.87;;;0.30;99.90;;;;;;5070442;28;20259;-77
2024/01/02 04:10:42;;;;;;;10.60;7.47;;;0.20;99.90;;;;;;5068732;28;20528;-80
2024/01/02 04:13:09;;;;;;;8.50;6.87;;;0.20;99.90;;;;;;5055873;28;20218;-79
2024/01/02 04:15:35;;;;;;;8.97;7.07;;;0.20;99.90;;;;;;5055288;28;20186;-79
2024/01/02 04:18:01;;;;;;;7.90;7.03;;;0.20;99.90;;;;;;5057140;28;20308;-79
2024/01/02 04:20:27;;;;;;;8.87;7.30;;;0.30;99.90;;;;;;5057259;28;20268;-78
2024/01/02 04:22:54;;;;;;;7.20;6.50;;;0.30;99.90;;;;;;5055102;28;20209;-81
2024/01/02 04:25:23;;;;;;;9.03;7.17;;;0.40;99.90;;;;;;5055293;28;20174;-80
2024/01/02 04:27:54;;;;;;;7.50;6.73;;;0.30;99.90;;;;;;5054852;28;20914;-81
2024/01/02 04:30:20;;;;;;;7.57;6.67;;;0.30;99.90;;;;;;5056029;28;20243;-78
2024/01/02 04:32:46;;;;;;;7.73;6.60;;;0.40;99.90;;;;;;5055338;28;20306;-80
2024/01/02 04:35:11;;;;;;;7.53;6.50;;;0.30;99.90;;;;;;5055938;28;20175;-79
2024/01/02 04:37:37;;;;;;;7.73;6.80;;;0.30;99.90;;;;;;5057120;28;20185;-79
2024/01/02 04:40:05;;;;;;;7.33;6.60;;;0.30;99.90;;;;;;5055017;28;20180;-80
2024/01/02 04:42:35;;;;;;;6.93;6.23;;;0.40;99.90;;;;;;5059919;28;20188;-79
2024/01/02 04:45:02;;;;;;;6.57;5.97;;;0.40;99.90;;;;;;5072117;28;20158;-77
2024/01/02 04:47:28;;;;;;;7.53;6.43;;;0.40;99.90;;;;;;5066216;28;20193;-79
2024/01/02 04:49:55;;;;;;;8.07;6.83;;;0.40;99.90;;;;;;5089536;28;20184;-79
2024/01/02 04:52:21;;;;;;;6.97;6.27;;;0.40;99.90;;;;;;5053784;28;20213;-77
2024/01/02 04:54:48;;;;;;;7.53;6.60;;;0.50;99.90;;;;;;5055811;28;20671;-79
2024/01/02 04:57:14;;;;;;;8.03;6.90;;;0.40;99.90;;;;;;5056481;28;20197;-77
2024/01/02 04:59:39;;;;;;;7.43;6.73;;;0.40;99.90;;;;;;5055423;28;20175;-78
2024/01/02 05:02:05;;;;;;;7.23;6.53;;;0.50;99.90;;;;;;5056413;28;20175;-79
2024/01/02 05:04:31;;;;;;;7.00;6.30;;;0.40;99.90;;;;;;5055782;28;20201;-80
2024/01/02 05:06:57;;;;;;;6.97;6.40;;;0.40;99.90;;;;;;5077150;28;20188;-79
2024/01/02 05:09:23;;;;;;;6.97;6.27;;;0.50;99.90;;;;;;5053245;28;20340;-80
2024/01/02 05:11:48;;;;;;;8.80;7.33;;;0.50;99.90;;;;;;5054831;28;20206;-78
2024/01/02 05:14:15;;;;;;;7.23;6.43;;;0.50;99.90;;;;;;5054702;28;20257;-79
2024/01/02 05:16:41;;;;;;;6.63;6.00;;;0.50;99.90;;;;;;5055016;28;20207;-81
2024/01/02 05:19:07;;;;;;;7.93;6.50;;;0.50;99.90;;;;;;5055012;28;20587;-78
2024/01/02 05:21:32;;;;;;;8.63;6.73;;;0.50;99.90;;;;;;5054183;28;20172;-78
2024/01/02 05:23:58;;;;;;;7.80;6.33;;;0.50;99.90;;;;;;5054668;28;20175;-78
2024/01/02 05:26:24;;;;;;;7.33;6.33;;;0.50;99.90;;;;;;5054853;28;20663;-79
2024/01/02 05:28:49;;;;;;;7.23;6.50;;;0.50;99.90;;;;;;5054523;28;20180;-76
2024/01/02 05:31:15;;;;;;;7.73;6.87;;;0.60;99.90;;;;;;5055996;28;20182;-80
2024/01/02 05:33:41;;;;;;;9.13;6.60;;;0.60;99.90;;;;;;5055994;28;20262;-78
2024/01/02 05:36:07;;;;;;;9.60;7.93;;;0.60;99.90;;;;;;5056831;28;20172;-76
2024/01/02 05:38:32;;;;;;;9.53;7.27;;;0.60;99.90;;;;;;5056377;28;20186;-80
2024/01/02 05:40:58;;;;;;;7.47;6.73;;;0.60;99.90;;;;;;5054343;28;20638;-78
2024/01/02 05:43:24;;;;;;;7.07;6.37;;;0.60;99.90;;;;;;5055589;28;20166;-79
2024/01/02 05:45:50;;;;;;;7.93;7.13;;;0.60;99.90;;;;;;5053439;28;20675;-79
2024/01/02 05:48:16;;;;;;;6.47;5.87;;;0.70;99.90;;;;;;5054079;28;20183;-81
2024/01/02 05:50:42;;;;;;;7.20;6.50;;;0.70;99.90;;;;;;5054283;28;20174;-79
2024/01/02 05:53:10;;;;;;;8.40;6.70;;;0.60;99.90;;;;;;5060399;28;20222;-77
2024/01/02 05:55:36;;;;;;;7.07;6.33;;;0.60;99.90;;;;;;5073674;28;20172;-78
2024/01/02 05:58:02;;;;;;;7.27;6.17;;;0.60;99.90;;;;;;5055582;28;20180;-79
2024/01/02 06:00:28;;;;;;;7.53;6.33;;;0.70;99.90;;;;;;5053660;28;20173;-79
2024/01/02 06:02:54;;;;;;;7.30;6.43;;;0.70;99.90;;;;;;5040390;28;20324;-78
2024/01/02 06:05:20;;;;;;;7.37;6.67;;;0.60;99.90;;;;;;5032253;28;20183;-77
2024/01/02 06:07:46;;;;;;;7.47;6.27;;;0.60;99.90;;;;;;5036543;28;20709;-77
2024/01/02 06:10:12;;;;;;;7.03;6.33;;;0.60;99.90;;;;;;5034834;28;20303;-77
2024/01/02 06:12:38;;;;;;;8.47;6.90;;;0.60;99.90;;;;;;5035391;28;20287;-79
2024/01/02 06:15:04;;;;;;;6.73;5.77;;;0.50;99.90;;;;;;5041544;28;20219;-79
2024/01/02 06:17:30;;;;;;;7.20;6.50;;;0.50;99.90;;;;;;5057334;28;20174;-76
2024/01/02 06:19:56;;;;;;;7.27;6.40;;;0.50;99.90;;;;;;5055573;28;20174;-77
2024/01/02 06:22:22;;;;;;;6.70;6.07;;;0.50;99.90;;;;;;5059863;28;20188;-78
2024/01/02 06:24:48;;;;;;;6.53;5.93;;;0.50;99.90;;;;;;5070571;28;20197;-77
2024/01/02 06:27:14;;;;;;;6.57;5.80;;;0.60;99.90;;;;;;5053332;28;20225;-79
2024/01/02 06:29:40;;;;;;;9.13;6.43;;;0.50;99.90;;;;;;5053604;28;20236;-79
2024/01/02 06:32:06;;;;;;;7.40;5.80;;;0.50;99.90;;;;;;5055701;28;20203;-79
2024/01/02 06:34:32;;;;;;;6.97;6.27;;;0.50;99.90;;;;;;5052529;28;20195;-79
2024/01/02 06:36:57;;;;;;;7.10;6.40;;;0.50;99.90;;;;;;5054525;28;20182;-79
2024/01/02 06:39:23;;;;;;;6.80;6.10;;;0.60;99.90;;;;;;5056088;28;20214;-79
2024/01/02 06:41:49;;;;;;;6.53;5.93;;;0.60;99.90;;;;;;5054076;28;20258;-76
2024/01/02 06:44:15;;;;;;;8.57;6.93;;;0.60;99.90;;;;;;5053366;28;20702;-77
2024/01/02 06:46:41;;;;;;;7.53;6.17;;;0.60;99.90;;;;;;5033803;28;20234;-77
2024/01/02 06:49:08;;;;;;;6.70;6.10;;;0.70;99.90;;;;;;5038201;28;20183;-76
2024/01/02 06:51:34;;;;;;;7.20;6.50;;;0.70;99.90;;;;;;5058608;28;20201;-77
2024/01/02 06:54:01;;;;;;;7.40;6.70;;;0.70;99.90;;;;;;5066643;28;20176;-76
2024/01/02 06:56:27;;;;;;;7.13;6.10;;;0.70;99.90;;;;;;5059384;28;20709;-78
2024/01/02 06:58:53;;;;;;;6.87;6.27;;;0.70;99.90;;;;;;5060999;28;20200;-78
2024/01/02 07:01:19;;;;;;;7.00;6.30;;;0.80;99.90;;;;;;5055026;28;20179;-81
2024/01/02 07:03:45;;;;;;;7.37;6.07;;;0.80;99.90;;;;;;5054026;28;20187;-80
2024/01/02 07:06:10;;;;;;;6.70;6.10;;;0.90;99.90;;;;;;5054136;28;20241;-81
2024/01/02 07:08:36;;;;;;;6.20;5.60;;;1.00;99.90;;;;;;5053200;28;20230;-78
2024/01/02 07:11:03;;;;;;;7.07;5.80;;;1.00;99.90;;;;;;5052176;28;20190;-78
2024/01/02 07:13:29;;;;;;;7.67;6.23;;;1.00;99.90;;;;;;5051385;28;20208;-79
2024/01/02 07:15:56;;;;;;;7.17;6.27;;;1.00;99.90;;;;;;5052628;28;20543;-78
2024/01/02 07:18:22;;;;;;;7.30;6.23;;;1.10;99.90;;;;;;5053876;28;20177;-77
2024/01/02 07:20:47;;;;;;;6.30;5.70;;;1.10;99.90;;;;;;5062180;28;20198;-78
2024/01/02 07:23:13;;;;;;;7.73;6.90;;;1.10;99.90;;;;;;5060924;28;20262;-77
2024/01/02 07:25:39;;;;;;;7.63;6.80;;;1.10;99.90;;;;;;5058664;28;20173;-78
2024/01/02 07:28:05;;;;;;;8.53;6.97;;;1.20;99.90;;;;;;5057774;28;20180;-77
2024/01/02 07:30:31;;;;;;;11.33;7.20;;;1.10;99.90;;;;;;5058835;28;20205;-80
2024/01/02 07:32:57;;;;;;;10.40;6.93;;;1.10;99.90;;;;;;5058437;28;20203;-77
2024/01/02 07:35:23;;;;;;;10.77;7.30;;;1.00;99.90;;;;;;5057665;28;20195;-80
2024/01/02 07:37:49;;;;;;;11.37;7.10;;;1.00;99.90;;;;;;5058658;28;20912;-78
2024/01/02 07:40:15;;;;;;;9.67;7.37;;;1.10;99.90;;;;;;5071052;28;20196;-77
2024/01/02 07:42:41;;;;;;;7.53;6.73;;;1.20;99.90;;;;;;5049836;28;20188;-78
2024/01/02 07:45:08;;;;;;;8.97;7.57;;;1.20;99.90;;;;;;5043633;28;20242;-78
2024/01/02 07:47:34;;;;;;;8.37;7.43;;;1.30;99.90;;;;;;5041426;28;20209;-78
2024/01/02 07:50:00;;;;;;;8.07;7.20;;;1.30;99.90;;;;;;5043429;28;20695;-81
2024/01/02 07:52:26;;;;;;;8.10;7.27;;;1.40;99.90;;;;;;5037068;28;20208;-79
2024/01/02 07:54:51;;;;;;;8.20;6.80;;;1.50;99.90;;;;;;5036820;28;20174;-79
2024/01/02 07:57:17;;;;;;;8.00;7.20;;;1.60;99.90;;;;;;5037589;28;20697;-79
2024/01/02 07:59:43;;;;;;;9.50;6.67;;;1.70;99.90;;;;;;5044251;28;20203;-76
2024/01/02 08:02:08;;;;;;;10.77;7.03;;;1.70;99.90;;;;;;5046190;28;20176;-78
2024/01/02 08:04:34;;;;;;;11.53;6.93;;;1.70;99.90;;;;;;5036939;28;20173;-79
2024/01/02 08:07:01;;;;;;;7.70;6.43;;;1.80;99.90;;;;;;5036599;28;20238;-78
2024/01/02 08:09:27;;;;;;;8.00;7.20;;;1.80;99.90;;;;;;5035933;28;20224;-80
2024/01/02 08:11:53;;;;;;;7.93;6.37;;;1.80;99.90;;;;;;5036087;28;20197;-79
2024/01/02 08:14:19;;;;;;;8.43;6.73;;;1.70;99.90;;;;;;5036194;28;20274;-80
2024/01/02 08:16:45;;;;;;;7.77;6.83;;;1.90;99.90;;;;;;5036010;28;20182;-79
2024/01/02 08:19:11;;;;;;;7.93;6.70;;;1.90;99.90;;;;;;5036218;28;20177;-75
2024/01/02 08:21:36;;;;;;;8.40;6.87;;;1.90;99.90;;;;;;5036710;28;20174;-82
2024/01/02 08:24:03;;;;;;;8.90;6.80;;;1.90;99.90;;;;;;5035496;28;20174;-79
2024/01/02 08:26:28;;;;;;;8.87;6.90;;;2.00;99.90;;;;;;5035437;28;20228;-79
2024/01/02 08:28:54;;;;;;;9.90;6.90;;;2.20;99.90;;;;;;5038434;28;20170;-77
2024/01/02 08:31:20;;;;;;;13.27;8.30;;;2.30;99.90;;;;;;5052854;28;20177;-79
2024/01/02 08:33:45;;;;;;;8.97;7.30;;;2.30;99.90;;;;;;5036143;28;20192;-75
2024/01/02 08:36:11;;;;;;;9.00;7.20;;;2.30;99.90;;;;;;5036530;28;20165;-76
2024/01/02 08:38:38;;;;;;;9.83;7.30;;;2.30;99.90;;;;;;5042563;28;20205;-76
2024/01/02 08:41:04;;;;;;;9.40;8.20;;;2.40;99.90;;;;;;5037787;28;20178;-79
2024/01/02 08:43:30;;;;;;;9.13;7.80;;;2.40;99.90;;;;;;5040308;28;20973;-77
2024/01/02 08:45:57;;;;;;;9.27;7.37;;;2.50;99.90;;;;;;5037684;28;21017;-79
2024/01/02 08:48:23;;;;;;;8.87;7.97;;;2.50;99.90;;;;;;5036830;28;20186;-77
2024/01/02 08:50:48;;;;;;;8.63;7.70;;;2.50;99.90;;;;;;5038649;28;20248;-79
2024/01/02 08:53:14;;;;;;;9.10;7.33;;;2.50;99.90;;;;;;5038933;28;20624;-78
2024/01/02 08:55:40;;;;;;;9.37;7.17;;;2.60;99.90;;;;;;5039449;28;20632;-78
2024/01/02 08:58:06;;;;;;;8.90;7.70;;;2.60;99.90;;;;;;5038312;28;20219;-80
2024/01/02 09:00:33;;;;;;;10.07;8.03;;;2.70;99.90;;;;;;5036112;28;20634;-79
2024/01/02 09:03:05;;;;;;;8.80;7.90;;;2.70;99.90;;;;;;5036094;28;20187;-78
2024/01/02 09:05:31;;;;;;;10.93;7.70;;;2.70;99.90;;;;;;5035564;28;20205;-78
2024/01/02 09:07:59;;;;;;;10.00;7.60;;;2.60;99.90;;;;;;5035655;28;20186;-77
2024/01/02 09:10:25;;;;;;;11.37;7.97;;;2.60;99.90;;;;;;5035929;28;20195;-79
2024/01/02 09:12:51;;;;;;;10.43;8.57;;;2.60;99.90;;;;;;5034118;28;20663;-80
2024/01/02 09:15:18;;;;;;;12.97;8.97;;;2.70;99.90;;;;;;5036585;28;20176;-78
2024/01/02 09:17:44;;;;;;;13.73;9.00;;;2.70;99.90;;;;;;5044645;28;20178;-74
2024/01/02 09:20:11;;;;;;;12.77;9.07;;;2.80;99.90;;;;;;5043506;28;20665;-80
2024/01/02 09:22:37;;;;;;;11.20;8.77;;;2.80;99.90;;;;;;5035209;28;20695;-80
2024/01/02 09:25:04;;;;;;;11.00;8.07;;;2.80;99.90;;;;;;5037056;28;20183;-77
2024/01/02 09:27:31;;;;;;;8.23;7.27;;;2.80;99.90;;;;;;5054192;28;20203;-77
2024/01/02 09:30:00;;;;;;;10.13;7.53;;;2.90;99.90;;;;;;5037393;28;20502;-79
2024/01/02 09:32:26;;;;;;;10.27;7.83;;;2.90;99.90;;;;;;5035201;28;20257;-78
2024/01/02 09:34:54;;;;;;;10.60;7.87;;;2.80;99.90;;;;;;5038437;28;20166;-77
2024/01/02 09:37:20;;;;;;;9.43;8.13;;;2.90;99.90;;;;;;5048166;28;20199;-79
2024/01/02 09:39:46;;;;;;;9.20;8.07;;;2.90;99.90;;;;;;5035507;28;20516;-80
2024/01/02 09:42:32;;;;;;;11.97;8.10;;;2.90;99.90;;;;;;5034326;28;20177;-78
2024/01/02 09:45:16;;;;;;;10.57;8.23;;;3.00;99.90;;;;;;5035490;28;20164;-79
2024/01/02 09:48:10;;;;;;;10.07;8.13;;;3.10;99.90;;;;;;5035020;28;20273;-79
2024/01/02 09:51:06;;;;;;;10.27;8.03;;;3.10;99.90;;;;;;5036771;28;20190;-78
2024/01/02 09:53:32;;;;;;;8.50;7.70;;;3.20;99.90;;;;;;5032772;28;20715;-76
2024/01/02 09:56:07;;;;;;;10.27;7.63;;;3.20;99.90;;;;;;5039414;28;20175;-78
2024/01/02 09:58:41;;;;;;;9.30;8.07;;;3.20;99.90;;;;;;5042795;28;20516;-76
2024/01/02 10:01:22;;;;;;;10.77;8.00;;;3.10;99.90;;;;;;5034081;28;20668;-78
2024/01/02 10:04:14;;;;;;;9.57;8.37;;;3.10;99.90;;;;;;5034663;28;20164;-75
2024/01/02 10:06:57;;;;;;;9.50;7.53;;;3.10;99.90;;;;;;5053989;28;20178;-77
2024/01/02 10:09:45;;;;;;;10.57;8.07;;;3.20;99.90;;;;;;5034415;28;20239;-80
2024/01/02 10:12:38;;;;;;;10.43;7.90;;;3.00;99.90;;;;;;5033353;28;20211;-79
2024/01/02 10:15:28;;;;;;;9.27;7.97;;;3.10;99.90;;;;;;5033971;28;20520;-78
2024/01/02 10:18:10;;;;;;;8.30;7.27;;;3.20;99.90;;;;;;5035440;28;20164;-78
2024/01/02 10:21:16;;;;;;;8.27;7.30;;;3.60;99.90;;;;;;5039520;28;20164;-76
2024/01/02 10:23:54;;;;;;;7.83;6.70;;;3.30;99.90;;;;;;5049945;28;20216;-77
2024/01/02 10:26:24;;;;;;;7.90;6.97;;;3.40;99.90;;;;;;5051199;28;20173;-75
2024/01/02 10:28:51;;;;;;;8.10;7.20;;;3.60;99.90;;;;;;5043914;28;20224;-77
2024/01/02 10:31:44;;;;;;;7.70;6.90;;;3.60;99.90;;;;;;5035074;28;20530;-76
2024/01/02 10:34:15;;;;;;;9.47;7.07;;;3.70;99.90;;;;;;5034995;28;20212;-78
2024/01/02 10:36:49;;;;;;;9.37;7.50;;;3.80;99.90;;;;;;5037648;28;20169;-77
2024/01/02 10:39:41;;;;;;;8.60;7.20;;;3.80;99.90;;;;;;5035778;28;20636;-76
2024/01/02 10:42:40;;;;;;;12.70;8.80;;;3.80;99.90;;;;;;5033359;28;20279;-77
2024/01/02 10:45:25;;;;;;;13.87;9.27;;;3.90;99.90;;;;;;5033146;28;20165;-80
2024/01/02 10:48:07;;;;;;;14.87;8.63;;;3.90;99.90;;;;;;5033250;28;20165;-78
2024/01/02 10:50:54;;;;;;;10.10;8.10;;;3.70;99.90;;;;;;5033437;28;20171;-78
2024/01/02 10:53:44;;;;;;;9.77;7.63;;;3.60;99.90;;;;;;5033503;28;20254;-76
2024/01/02 10:56:16;;;;;;;8.33;7.03;;;3.70;99.90;;;;;;5036164;28;20231;-77
2024/01/02 10:59:08;;;;;;;10.07;8.13;;;3.80;99.90;;;;;;5033924;28;20268;-79
2024/01/02 11:01:38;;;;;;;9.10;7.13;;;3.90;99.90;;;;;;5032962;28;20196;-81
2024/01/02 11:04:23;;;;;;;9.00;7.83;;;4.00;99.90;;;;;;5034500;28;20213;-81
2024/01/02 11:06:56;;;;;;;10.63;7.47;;;4.00;99.90;;;;;;5032757;28;20648;-81
2024/01/02 11:09:36;;;;;;;10.50;8.03;;;4.00;99.90;;;;;;5034399;28;20305;-76
2024/01/02 11:12:07;;;;;;;11.23;8.70;;;4.10;99.90;;;;;;5037731;28;20288;-76
2024/01/02 11:14:34;;;;;;;9.57;7.83;;;4.30;99.90;;;;;;5049362;28;20172;-77
2024/01/02 11:17:02;;;;;;;11.30;8.60;;;4.40;99.90;;;;;;5045540;28;20179;-79
2024/01/02 11:19:36;;;;;;;11.83;8.83;;;4.50;99.90;;;;;;5043803;28;20302;-79
2024/01/02 11:22:10;;;;;;;9.77;8.20;;;4.60;99.90;;;;;;5033345;28;20163;-79
2024/01/02 11:24:44;;;;;;;15.47;9.03;;;4.60;99.90;;;;;;5034816;28;20208;-76
2024/01/02 11:27:11;;;;;;;14.47;9.60;;;4.50;99.90;;;;;;5045889;28;20162;-79
2024/01/02 11:29:43;;;;;;;15.30;8.70;;;4.50;99.90;;;;;;5039214;28;20639;-79
2024/01/02 11:32:13;;;;;;;9.43;7.60;;;4.40;99.90;;;;;;5034725;28;20230;-78
2024/01/02 11:34:59;;;;;;;12.90;8.53;;;4.30;99.90;;;;;;5032872;28;20193;-78
2024/01/02 11:37:34;;;;;;;10.67;8.13;;;4.20;99.90;;;;;;5032716;28;20162;-79
2024/01/02 11:40:18;;;;;;;12.30;8.50;;;4.20;99.90;;;;;;5032916;28;20169;-79
2024/01/02 11:43:05;;;;;;;10.30;8.17;;;4.00;99.90;;;;;;5033743;28;20177;-79
2024/01/02 11:45:36;;;;;;;9.13;7.23;;;4.10;99.90;;;;;;5034710;28;20167;-81
2024/01/02 11:48:30;;;;;;;8.27;7.07;;;4.00;99.90;;;;;;5033736;28;20607;-79
2024/01/02 11:51:02;;;;;;;10.03;7.23;;;4.00;99.90;;;;;;5033837;28;20191;-79
2024/01/02 11:53:49;;;;;;;10.93;7.83;;;4.00;99.90;;;;;;5032838;28;20225;-80
2024/01/02 11:56:18;;;;;;;9.30;7.40;;;4.00;99.90;;;;;;5033103;28;20624;-79
2024/01/02 11:59:06;;;;;;;7.87;7.07;;;4.10;99.90;;;;;;5033354;28;20174;-77
2024/01/02 12:01:53;;;;;;;7.07;5.77;;;4.10;99.90;;;;;;5035240;28;20179;-78
2024/01/02 12:04:39;;;;;;;6.97;5.80;;;4.10;99.90;;;;;;5032599;28;20231;-78
2024/01/02 12:07:12;;;;;;;5.63;5.00;;;4.10;99.90;;;;;;5036257;28;20176;-79
2024/01/02 12:09:42;;;;;;;5.47;4.70;;;4.20;99.90;;;;;;5036373;28;20300;-79
2024/01/02 12:12:23;;;;;;;5.10;4.60;;;4.30;99.90;;;;;;5036236;28;20241;-77
2024/01/02 12:15:05;;;;;;;5.57;5.03;;;4.30;99.90;;;;;;5036389;28;20184;-78
2024/01/02 12:17:39;;;;;;;6.23;5.10;;;4.30;99.90;;;;;;5036107;28;20207;-81
2024/01/02 12:20:10;;;;;;;8.47;6.03;;;4.30;99.90;;;;;;5035710;28;20257;-81
2024/01/02 12:22:36;;;;;;;10.83;7.13;;;4.40;99.90;;;;;;5035269;28;20256;-81
2024/01/02 12:25:05;;;;;;;9.03;6.87;;;4.50;99.90;;;;;;5036168;28;20171;-78
2024/01/02 12:27:36;;;;;;;10.33;6.70;;;4.50;99.90;;;;;;5036245;28;20185;-77
2024/01/02 12:30:04;;;;;;;11.27;6.97;;;4.50;99.90;;;;;;5037164;28;20161;-77
2024/01/02 12:32:39;;;;;;;8.37;6.80;;;4.50;99.90;;;;;;5044032;28;20205;-77
2024/01/02 12:35:21;;;;;;;8.00;7.20;;;4.60;99.90;;;;;;5037250;28;20241;-79
2024/01/02 12:38:18;;;;;;;9.30;6.93;;;4.60;99.90;;;;;;5037750;28;20180;-80
2024/01/02 12:40:48;;;;;;;10.63;6.80;;;4.70;99.90;;;;;;5037984;28;20182;-76
2024/01/02 12:43:22;;;;;;;8.43;7.03;;;4.60;99.90;;;;;;5037232;28;20644;-77
2024/01/02 12:45:54;;;;;;;9.70;7.77;;;4.60;99.90;;;;;;5054057;28;20194;-78
2024/01/02 12:48:24;;;;;;;10.00;7.33;;;4.60;99.90;;;;;;5036531;28;20611;-78
2024/01/02 12:50:53;;;;;;;11.60;7.77;;;4.70;99.90;;;;;;5037635;28;20264;-77
2024/01/02 12:53:24;;;;;;;11.30;7.60;;;4.80;99.90;;;;;;5036732;28;20214;-77
2024/01/02 12:55:57;;;;;;;10.57;7.63;;;4.80;99.90;;;;;;5040576;28;20184;-77
2024/01/02 12:58:29;;;;;;;9.93;7.50;;;4.90;99.90;;;;;;5049012;28;20206;-78
2024/01/02 13:00:55;;;;;;;10.57;7.17;;;4.90;99.90;;;;;;5049309;28;20260;-77